CheckWX is a tool to help pilots better visualize weather data.  It is not intended as a substitute for an official pre-flight weather briefing.

04:52:50 UTC

KMNV METAR
Monroe County Airport
Madisonville, Tennessee, USA
Current

13 mins ago

KMNV 270440Z AUTO 00000KT 10SM CLR 21/20 A3021 RMK A01
Observed
Jun-27 @ 04:40 UTC
Visibility
10 SM
Flight Rules
VFR
Cloud Levels
  • Clear skies
Temperature
21°C / 70°F
Dewpoint
20°C / 68°F
Humidity
94%
Altimeter
30.21" Hg
Pressure
1023.02 hPa
Previous

33 mins ago

KMNV 270420Z AUTO 00000KT 10SM CLR 21/20 A3021 RMK A01
Observed
Jun-27 @ 04:20 UTC
Visibility
10 SM
Flight Rules
VFR
Cloud Levels
  • Clear skies
Temperature
21°C / 70°F
Dewpoint
20°C / 68°F
Humidity
94%
Altimeter
30.21" Hg
Pressure
1023.02 hPa
Previous

53 mins ago

KMNV 270400Z AUTO 00000KT 10SM CLR 21/20 A3021 RMK A01
Observed
Jun-27 @ 04:00 UTC
Visibility
10 SM
Flight Rules
VFR
Cloud Levels
  • Clear skies
Temperature
21°C / 70°F
Dewpoint
20°C / 68°F
Humidity
94%
Altimeter
30.21" Hg
Pressure
1023.02 hPa